sensor_id;sensor_type;location;lat;lon;timestamp;P1;durP1;ratioP1;P2;durP2;ratioP2
57848;SDS011;68645;44.762;21.516;2024-01-30T00:00:15;169.70;;;92.95;;
57848;SDS011;68645;44.762;21.516;2024-01-30T00:02:41;154.43;;;90.40;;
57848;SDS011;68645;44.762;21.516;2024-01-30T00:05:08;164.88;;;93.35;;
57848;SDS011;68645;44.762;21.516;2024-01-30T00:07:34;171.40;;;97.57;;
57848;SDS011;68645;44.762;21.516;2024-01-30T00:10:00;238.00;;;119.38;;
57848;SDS011;68645;44.762;21.516;2024-01-30T00:12:26;168.38;;;94.43;;
57848;SDS011;68645;44.762;21.516;2024-01-30T00:14:52;156.38;;;87.57;;
57848;SDS011;68645;44.762;21.516;2024-01-30T00:17:19;137.95;;;81.47;;
57848;SDS011;68645;44.762;21.516;2024-01-30T00:19:46;132.68;;;76.38;;
57848;SDS011;68645;44.762;21.516;2024-01-30T00:22:12;133.38;;;78.43;;
57848;SDS011;68645;44.762;21.516;2024-01-30T00:24:38;137.52;;;79.25;;
57848;SDS011;68645;44.762;21.516;2024-01-30T00:27:04;120.43;;;70.72;;
57848;SDS011;68645;44.762;21.516;2024-01-30T00:29:30;133.95;;;72.63;;
57848;SDS011;68645;44.762;21.516;2024-01-30T00:31:58;119.40;;;67.60;;
57848;SDS011;68645;44.762;21.516;2024-01-30T00:34:25;116.93;;;67.90;;
57848;SDS011;68645;44.762;21.516;2024-01-30T00:36:51;85.00;;;47.47;;
57848;SDS011;68645;44.762;21.516;2024-01-30T00:39:17;91.88;;;52.95;;
57848;SDS011;68645;44.762;21.516;2024-01-30T00:41:44;83.97;;;44.53;;
57848;SDS011;68645;44.762;21.516;2024-01-30T00:44:10;62.42;;;33.42;;
57848;SDS011;68645;44.762;21.516;2024-01-30T00:46:37;52.92;;;30.15;;
57848;SDS011;68645;44.762;21.516;2024-01-30T00:49:03;66.53;;;37.53;;
57848;SDS011;68645;44.762;21.516;2024-01-30T00:51:29;69.18;;;37.92;;
57848;SDS011;68645;44.762;21.516;2024-01-30T00:53:55;75.63;;;40.65;;
57848;SDS011;68645;44.762;21.516;2024-01-30T00:56:21;91.05;;;46.40;;
57848;SDS011;68645;44.762;21.516;2024-01-30T00:58:49;83.53;;;45.42;;
57848;SDS011;68645;44.762;21.516;2024-01-30T01:01:15;85.35;;;46.88;;
57848;SDS011;68645;44.762;21.516;2024-01-30T01:03:41;103.22;;;52.47;;
57848;SDS011;68645;44.762;21.516;2024-01-30T01:06:08;114.32;;;60.47;;
57848;SDS011;68645;44.762;21.516;2024-01-30T01:08:35;123.70;;;61.42;;
57848;SDS011;68645;44.762;21.516;2024-01-30T01:11:01;84.10;;;46.40;;
57848;SDS011;68645;44.762;21.516;2024-01-30T01:13:28;118.53;;;62.88;;
57848;SDS011;68645;44.762;21.516;2024-01-30T01:15:54;100.95;;;53.15;;
57848;SDS011;68645;44.762;21.516;2024-01-30T01:18:21;87.82;;;52.28;;
57848;SDS011;68645;44.762;21.516;2024-01-30T01:20:47;68.82;;;40.35;;
57848;SDS011;68645;44.762;21.516;2024-01-30T01:23:13;81.55;;;44.35;;
57848;SDS011;68645;44.762;21.516;2024-01-30T01:25:39;81.18;;;44.55;;
57848;SDS011;68645;44.762;21.516;2024-01-30T01:28:05;79.93;;;45.97;;
57848;SDS011;68645;44.762;21.516;2024-01-30T01:30:31;97.55;;;49.13;;
57848;SDS011;68645;44.762;21.516;2024-01-30T01:32:58;84.03;;;45.80;;
57848;SDS011;68645;44.762;21.516;2024-01-30T01:35:26;84.88;;;45.85;;
57848;SDS011;68645;44.762;21.516;2024-01-30T01:37:53;77.20;;;44.05;;
57848;SDS011;68645;44.762;21.516;2024-01-30T01:40:24;75.70;;;41.33;;
57848;SDS011;68645;44.762;21.516;2024-01-30T01:42:51;64.43;;;35.85;;
57848;SDS011;68645;44.762;21.516;2024-01-30T01:45:18;44.60;;;23.80;;
57848;SDS011;68645;44.762;21.516;2024-01-30T01:47:45;55.40;;;29.85;;
57848;SDS011;68645;44.762;21.516;2024-01-30T01:50:13;41.55;;;23.10;;
57848;SDS011;68645;44.762;21.516;2024-01-30T01:52:41;83.57;;;43.50;;
57848;SDS011;68645;44.762;21.516;2024-01-30T01:55:07;58.80;;;32.78;;
57848;SDS011;68645;44.762;21.516;2024-01-30T01:57:33;69.55;;;36.03;;
57848;SDS011;68645;44.762;21.516;2024-01-30T02:00:00;79.47;;;42.90;;
57848;SDS011;68645;44.762;21.516;2024-01-30T02:02:29;65.47;;;36.60;;
57848;SDS011;68645;44.762;21.516;2024-01-30T02:04:57;54.17;;;29.83;;
57848;SDS011;68645;44.762;21.516;2024-01-30T02:07:23;66.88;;;34.63;;
57848;SDS011;68645;44.762;21.516;2024-01-30T02:09:50;79.55;;;42.80;;
57848;SDS011;68645;44.762;21.516;2024-01-30T02:12:16;65.32;;;30.88;;
57848;SDS011;68645;44.762;21.516;2024-01-30T02:14:45;60.17;;;28.95;;
57848;SDS011;68645;44.762;21.516;2024-01-30T02:17:12;36.30;;;20.27;;
57848;SDS011;68645;44.762;21.516;2024-01-30T02:19:38;90.85;;;48.40;;
57848;SDS011;68645;44.762;21.516;2024-01-30T02:22:04;65.70;;;33.67;;
57848;SDS011;68645;44.762;21.516;2024-01-30T02:24:31;75.55;;;40.10;;
57848;SDS011;68645;44.762;21.516;2024-01-30T02:26:57;63.53;;;34.08;;
57848;SDS011;68645;44.762;21.516;2024-01-30T02:29:23;48.80;;;28.48;;
57848;SDS011;68645;44.762;21.516;2024-01-30T02:31:50;47.20;;;27.58;;
57848;SDS011;68645;44.762;21.516;2024-01-30T02:34:16;41.20;;;22.63;;
57848;SDS011;68645;44.762;21.516;2024-01-30T02:36:42;46.90;;;24.77;;
57848;SDS011;68645;44.762;21.516;2024-01-30T02:39:09;45.20;;;27.10;;
57848;SDS011;68645;44.762;21.516;2024-01-30T02:41:35;33.00;;;18.70;;
57848;SDS011;68645;44.762;21.516;2024-01-30T02:44:02;44.75;;;24.85;;
57848;SDS011;68645;44.762;21.516;2024-01-30T02:46:28;51.08;;;25.55;;
57848;SDS011;68645;44.762;21.516;2024-01-30T02:48:54;52.22;;;28.15;;
57848;SDS011;68645;44.762;21.516;2024-01-30T02:51:20;42.30;;;22.35;;
57848;SDS011;68645;44.762;21.516;2024-01-30T02:53:46;55.78;;;28.88;;
57848;SDS011;68645;44.762;21.516;2024-01-30T02:56:12;56.63;;;31.70;;
57848;SDS011;68645;44.762;21.516;2024-01-30T02:58:39;56.05;;;28.67;;
57848;SDS011;68645;44.762;21.516;2024-01-30T03:01:06;44.35;;;23.77;;
57848;SDS011;68645;44.762;21.516;2024-01-30T03:03:32;35.75;;;19.40;;
57848;SDS011;68645;44.762;21.516;2024-01-30T03:06:00;29.50;;;16.08;;
57848;SDS011;68645;44.762;21.516;2024-01-30T03:08:27;35.92;;;17.92;;
57848;SDS011;68645;44.762;21.516;2024-01-30T03:10:53;35.17;;;17.80;;
57848;SDS011;68645;44.762;21.516;2024-01-30T03:13:19;32.83;;;16.95;;
57848;SDS011;68645;44.762;21.516;2024-01-30T03:15:45;34.67;;;17.98;;
57848;SDS011;68645;44.762;21.516;2024-01-30T03:18:12;39.45;;;19.48;;
57848;SDS011;68645;44.762;21.516;2024-01-30T03:20:38;39.08;;;21.63;;
57848;SDS011;68645;44.762;21.516;2024-01-30T03:23:04;36.30;;;18.85;;
57848;SDS011;68645;44.762;21.516;2024-01-30T03:25:30;40.22;;;19.73;;
57848;SDS011;68645;44.762;21.516;2024-01-30T03:27:56;37.55;;;19.55;;
57848;SDS011;68645;44.762;21.516;2024-01-30T03:30:23;38.17;;;19.23;;
57848;SDS011;68645;44.762;21.516;2024-01-30T03:32:49;50.85;;;26.95;;
57848;SDS011;68645;44.762;21.516;2024-01-30T03:35:15;78.28;;;36.15;;
57848;SDS011;68645;44.762;21.516;2024-01-30T03:37:41;99.63;;;46.28;;
57848;SDS011;68645;44.762;21.516;2024-01-30T03:40:07;119.90;;;54.88;;
57848;SDS011;68645;44.762;21.516;2024-01-30T03:42:34;119.85;;;53.50;;
57848;SDS011;68645;44.762;21.516;2024-01-30T03:45:00;99.85;;;47.67;;
57848;SDS011;68645;44.762;21.516;2024-01-30T03:47:26;93.72;;;42.78;;
57848;SDS011;68645;44.762;21.516;2024-01-30T03:49:52;75.80;;;39.03;;
57848;SDS011;68645;44.762;21.516;2024-01-30T03:52:18;65.30;;;32.70;;
57848;SDS011;68645;44.762;21.516;2024-01-30T03:54:45;63.33;;;31.25;;
57848;SDS011;68645;44.762;21.516;2024-01-30T03:57:11;58.17;;;29.35;;
57848;SDS011;68645;44.762;21.516;2024-01-30T03:59:37;58.53;;;29.42;;
57848;SDS011;68645;44.762;21.516;2024-01-30T04:02:03;55.78;;;29.23;;
57848;SDS011;68645;44.762;21.516;2024-01-30T04:04:29;55.45;;;29.55;;
57848;SDS011;68645;44.762;21.516;2024-01-30T04:06:55;50.72;;;26.80;;
57848;SDS011;68645;44.762;21.516;2024-01-30T04:09:21;49.55;;;27.05;;
57848;SDS011;68645;44.762;21.516;2024-01-30T04:11:48;53.80;;;27.70;;
57848;SDS011;68645;44.762;21.516;2024-01-30T04:14:14;51.40;;;27.10;;
57848;SDS011;68645;44.762;21.516;2024-01-30T04:16:40;53.38;;;28.42;;
57848;SDS011;68645;44.762;21.516;2024-01-30T04:19:06;49.53;;;26.15;;
57848;SDS011;68645;44.762;21.516;2024-01-30T04:21:32;50.45;;;29.45;;
57848;SDS011;68645;44.762;21.516;2024-01-30T04:23:58;60.55;;;35.05;;
57848;SDS011;68645;44.762;21.516;2024-01-30T04:26:24;55.90;;;30.10;;
57848;SDS011;68645;44.762;21.516;2024-01-30T04:28:51;80.68;;;43.50;;
57848;SDS011;68645;44.762;21.516;2024-01-30T04:31:17;98.00;;;49.05;;
57848;SDS011;68645;44.762;21.516;2024-01-30T04:33:43;82.38;;;38.97;;
57848;SDS011;68645;44.762;21.516;2024-01-30T04:36:09;147.32;;;73.15;;
57848;SDS011;68645;44.762;21.516;2024-01-30T04:38:36;73.53;;;40.25;;
57848;SDS011;68645;44.762;21.516;2024-01-30T04:41:02;130.70;;;61.13;;
57848;SDS011;68645;44.762;21.516;2024-01-30T04:43:29;96.88;;;46.28;;
57848;SDS011;68645;44.762;21.516;2024-01-30T04:45:55;72.00;;;34.45;;
57848;SDS011;68645;44.762;21.516;2024-01-30T04:48:21;63.97;;;32.90;;
57848;SDS011;68645;44.762;21.516;2024-01-30T04:50:48;73.75;;;38.72;;
57848;SDS011;68645;44.762;21.516;2024-01-30T04:53:14;74.60;;;38.92;;
57848;SDS011;68645;44.762;21.516;2024-01-30T04:55:40;72.38;;;39.15;;
57848;SDS011;68645;44.762;21.516;2024-01-30T04:58:06;82.75;;;42.25;;
57848;SDS011;68645;44.762;21.516;2024-01-30T05:00:32;117.70;;;65.18;;
57848;SDS011;68645;44.762;21.516;2024-01-30T05:02:58;127.15;;;74.05;;
57848;SDS011;68645;44.762;21.516;2024-01-30T05:05:25;88.60;;;42.33;;
57848;SDS011;68645;44.762;21.516;2024-01-30T05:07:51;94.72;;;45.17;;
57848;SDS011;68645;44.762;21.516;2024-01-30T05:10:17;100.82;;;52.42;;
57848;SDS011;68645;44.762;21.516;2024-01-30T05:12:43;94.97;;;46.33;;
57848;SDS011;68645;44.762;21.516;2024-01-30T05:15:10;131.57;;;61.35;;
57848;SDS011;68645;44.762;21.516;2024-01-30T05:17:36;147.48;;;69.60;;
57848;SDS011;68645;44.762;21.516;2024-01-30T05:20:02;90.57;;;47.88;;
57848;SDS011;68645;44.762;21.516;2024-01-30T05:22:29;91.95;;;53.33;;
57848;SDS011;68645;44.762;21.516;2024-01-30T05:24:56;99.97;;;57.60;;
57848;SDS011;68645;44.762;21.516;2024-01-30T05:27:22;95.05;;;55.38;;
57848;SDS011;68645;44.762;21.516;2024-01-30T05:29:48;68.65;;;42.58;;
57848;SDS011;68645;44.762;21.516;2024-01-30T05:32:14;58.95;;;35.20;;
57848;SDS011;68645;44.762;21.516;2024-01-30T05:34:41;45.65;;;24.23;;
57848;SDS011;68645;44.762;21.516;2024-01-30T05:37:07;55.50;;;30.25;;
57848;SDS011;68645;44.762;21.516;2024-01-30T05:39:33;71.28;;;33.97;;
57848;SDS011;68645;44.762;21.516;2024-01-30T05:42:00;78.40;;;38.92;;
57848;SDS011;68645;44.762;21.516;2024-01-30T05:44:26;98.20;;;49.90;;
57848;SDS011;68645;44.762;21.516;2024-01-30T05:46:53;121.22;;;62.38;;
57848;SDS011;68645;44.762;21.516;2024-01-30T05:49:19;195.23;;;96.50;;
57848;SDS011;68645;44.762;21.516;2024-01-30T05:51:45;166.40;;;83.13;;
57848;SDS011;68645;44.762;21.516;2024-01-30T05:54:11;128.88;;;67.22;;
57848;SDS011;68645;44.762;21.516;2024-01-30T05:56:37;171.48;;;100.40;;
57848;SDS011;68645;44.762;21.516;2024-01-30T05:59:03;155.75;;;83.78;;
57848;SDS011;68645;44.762;21.516;2024-01-30T06:01:29;166.48;;;87.35;;
57848;SDS011;68645;44.762;21.516;2024-01-30T06:03:56;184.43;;;93.07;;
57848;SDS011;68645;44.762;21.516;2024-01-30T06:06:22;210.13;;;95.35;;
57848;SDS011;68645;44.762;21.516;2024-01-30T06:08:48;116.63;;;61.60;;
57848;SDS011;68645;44.762;21.516;2024-01-30T06:11:14;118.38;;;60.00;;
57848;SDS011;68645;44.762;21.516;2024-01-30T06:13:40;90.13;;;46.45;;
57848;SDS011;68645;44.762;21.516;2024-01-30T06:16:09;85.90;;;45.65;;
57848;SDS011;68645;44.762;21.516;2024-01-30T06:18:36;82.10;;;44.90;;
57848;SDS011;68645;44.762;21.516;2024-01-30T06:21:04;82.47;;;42.38;;
57848;SDS011;68645;44.762;21.516;2024-01-30T06:23:30;80.88;;;47.40;;
57848;SDS011;68645;44.762;21.516;2024-01-30T06:25:56;106.03;;;61.38;;
57848;SDS011;68645;44.762;21.516;2024-01-30T06:28:22;76.65;;;46.55;;
57848;SDS011;68645;44.762;21.516;2024-01-30T06:30:49;98.50;;;48.13;;
57848;SDS011;68645;44.762;21.516;2024-01-30T06:33:15;133.52;;;63.00;;
57848;SDS011;68645;44.762;21.516;2024-01-30T06:35:41;108.25;;;49.05;;
57848;SDS011;68645;44.762;21.516;2024-01-30T06:38:07;89.63;;;43.17;;
57848;SDS011;68645;44.762;21.516;2024-01-30T06:40:34;100.70;;;49.45;;
57848;SDS011;68645;44.762;21.516;2024-01-30T06:43:00;81.20;;;43.85;;
57848;SDS011;68645;44.762;21.516;2024-01-30T06:45:27;77.40;;;43.28;;
57848;SDS011;68645;44.762;21.516;2024-01-30T06:47:53;76.00;;;44.63;;
57848;SDS011;68645;44.762;21.516;2024-01-30T06:50:19;104.07;;;58.40;;
57848;SDS011;68645;44.762;21.516;2024-01-30T06:52:45;211.73;;;112.40;;
57848;SDS011;68645;44.762;21.516;2024-01-30T06:55:11;89.95;;;48.70;;
57848;SDS011;68645;44.762;21.516;2024-01-30T06:57:37;83.68;;;45.90;;
57848;SDS011;68645;44.762;21.516;2024-01-30T07:00:04;118.35;;;63.92;;
57848;SDS011;68645;44.762;21.516;2024-01-30T07:02:30;89.80;;;47.38;;
57848;SDS011;68645;44.762;21.516;2024-01-30T07:04:56;72.03;;;41.05;;
57848;SDS011;68645;44.762;21.516;2024-01-30T07:07:22;69.70;;;41.40;;
57848;SDS011;68645;44.762;21.516;2024-01-30T07:09:48;92.53;;;54.35;;
57848;SDS011;68645;44.762;21.516;2024-01-30T07:12:17;75.50;;;47.67;;
57848;SDS011;68645;44.762;21.516;2024-01-30T07:14:44;72.60;;;44.97;;
57848;SDS011;68645;44.762;21.516;2024-01-30T07:17:10;84.40;;;49.92;;
57848;SDS011;68645;44.762;21.516;2024-01-30T07:19:36;59.97;;;38.20;;
57848;SDS011;68645;44.762;21.516;2024-01-30T07:22:02;85.10;;;51.80;;
57848;SDS011;68645;44.762;21.516;2024-01-30T07:24:28;65.53;;;41.75;;
57848;SDS011;68645;44.762;21.516;2024-01-30T07:26:54;57.83;;;38.22;;
57848;SDS011;68645;44.762;21.516;2024-01-30T07:29:21;62.88;;;41.97;;
57848;SDS011;68645;44.762;21.516;2024-01-30T07:31:47;60.13;;;40.75;;
57848;SDS011;68645;44.762;21.516;2024-01-30T07:34:13;52.88;;;36.25;;
57848;SDS011;68645;44.762;21.516;2024-01-30T07:36:40;46.08;;;32.33;;
57848;SDS011;68645;44.762;21.516;2024-01-30T07:39:06;45.58;;;31.55;;
57848;SDS011;68645;44.762;21.516;2024-01-30T07:41:32;44.30;;;31.10;;
57848;SDS011;68645;44.762;21.516;2024-01-30T07:43:58;53.45;;;36.92;;
57848;SDS011;68645;44.762;21.516;2024-01-30T07:46:24;46.97;;;32.53;;
57848;SDS011;68645;44.762;21.516;2024-01-30T07:48:50;43.22;;;30.98;;
57848;SDS011;68645;44.762;21.516;2024-01-30T07:51:16;50.38;;;34.08;;
57848;SDS011;68645;44.762;21.516;2024-01-30T07:53:43;45.95;;;33.03;;
57848;SDS011;68645;44.762;21.516;2024-01-30T07:56:10;49.70;;;36.55;;
57848;SDS011;68645;44.762;21.516;2024-01-30T07:58:36;50.33;;;35.80;;
57848;SDS011;68645;44.762;21.516;2024-01-30T08:01:03;50.38;;;35.65;;
57848;SDS011;68645;44.762;21.516;2024-01-30T08:03:29;52.50;;;36.85;;
57848;SDS011;68645;44.762;21.516;2024-01-30T08:05:55;44.10;;;31.70;;
57848;SDS011;68645;44.762;21.516;2024-01-30T08:08:21;43.28;;;32.78;;
57848;SDS011;68645;44.762;21.516;2024-01-30T08:10:48;29.33;;;20.85;;
57848;SDS011;68645;44.762;21.516;2024-01-30T08:13:15;31.67;;;24.05;;
57848;SDS011;68645;44.762;21.516;2024-01-30T08:15:41;29.05;;;22.58;;
57848;SDS011;68645;44.762;21.516;2024-01-30T08:18:07;28.92;;;21.90;;
57848;SDS011;68645;44.762;21.516;2024-01-30T08:20:33;31.40;;;24.30;;
57848;SDS011;68645;44.762;21.516;2024-01-30T08:23:00;30.30;;;23.63;;
57848;SDS011;68645;44.762;21.516;2024-01-30T08:25:26;33.53;;;22.88;;
57848;SDS011;68645;44.762;21.516;2024-01-30T08:27:52;31.83;;;22.33;;
57848;SDS011;68645;44.762;21.516;2024-01-30T08:30:18;27.92;;;22.35;;
57848;SDS011;68645;44.762;21.516;2024-01-30T08:32:45;31.05;;;23.58;;
57848;SDS011;68645;44.762;21.516;2024-01-30T08:35:11;26.52;;;20.70;;
57848;SDS011;68645;44.762;21.516;2024-01-30T08:37:40;28.17;;;22.30;;
57848;SDS011;68645;44.762;21.516;2024-01-30T08:40:06;28.02;;;21.88;;
57848;SDS011;68645;44.762;21.516;2024-01-30T08:42:33;25.88;;;20.20;;
57848;SDS011;68645;44.762;21.516;2024-01-30T08:45:00;25.58;;;21.08;;
57848;SDS011;68645;44.762;21.516;2024-01-30T08:47:26;29.25;;;22.60;;
57848;SDS011;68645;44.762;21.516;2024-01-30T08:49:52;32.25;;;23.35;;
57848;SDS011;68645;44.762;21.516;2024-01-30T08:52:18;28.50;;;23.17;;
57848;SDS011;68645;44.762;21.516;2024-01-30T08:54:44;28.85;;;23.38;;
57848;SDS011;68645;44.762;21.516;2024-01-30T08:57:11;22.77;;;18.92;;
57848;SDS011;68645;44.762;21.516;2024-01-30T08:59:37;24.35;;;18.02;;
57848;SDS011;68645;44.762;21.516;2024-01-30T09:02:03;23.48;;;18.13;;
57848;SDS011;68645;44.762;21.516;2024-01-30T09:04:30;22.65;;;17.75;;
57848;SDS011;68645;44.762;21.516;2024-01-30T09:06:56;26.77;;;20.15;;
57848;SDS011;68645;44.762;21.516;2024-01-30T09:09:22;23.17;;;19.33;;
57848;SDS011;68645;44.762;21.516;2024-01-30T09:11:49;23.75;;;20.90;;
57848;SDS011;68645;44.762;21.516;2024-01-30T09:14:15;20.88;;;15.88;;
57848;SDS011;68645;44.762;21.516;2024-01-30T09:16:41;17.60;;;12.38;;
57848;SDS011;68645;44.762;21.516;2024-01-30T09:19:07;20.08;;;14.32;;
57848;SDS011;68645;44.762;21.516;2024-01-30T09:21:33;17.13;;;13.32;;
57848;SDS011;68645;44.762;21.516;2024-01-30T09:24:02;11.85;;;8.27;;
57848;SDS011;68645;44.762;21.516;2024-01-30T09:26:29;11.70;;;8.82;;
57848;SDS011;68645;44.762;21.516;2024-01-30T09:28:55;12.23;;;9.02;;
57848;SDS011;68645;44.762;21.516;2024-01-30T09:31:21;20.30;;;14.13;;
57848;SDS011;68645;44.762;21.516;2024-01-30T09:33:47;14.27;;;9.98;;
57848;SDS011;68645;44.762;21.516;2024-01-30T09:36:16;18.48;;;12.20;;
57848;SDS011;68645;44.762;21.516;2024-01-30T09:38:46;32.15;;;16.05;;
57848;SDS011;68645;44.762;21.516;2024-01-30T09:41:12;16.55;;;9.27;;
57848;SDS011;68645;44.762;21.516;2024-01-30T09:43:40;15.88;;;11.80;;
57848;SDS011;68645;44.762;21.516;2024-01-30T09:46:08;9.52;;;7.60;;
57848;SDS011;68645;44.762;21.516;2024-01-30T09:48:41;12.13;;;7.88;;
57848;SDS011;68645;44.762;21.516;2024-01-30T09:51:10;11.80;;;8.65;;
57848;SDS011;68645;44.762;21.516;2024-01-30T09:53:37;9.73;;;7.57;;
57848;SDS011;68645;44.762;21.516;2024-01-30T09:56:04;16.90;;;10.60;;
57848;SDS011;68645;44.762;21.516;2024-01-30T09:58:31;20.65;;;12.88;;
57848;SDS011;68645;44.762;21.516;2024-01-30T10:00:58;28.77;;;18.45;;
57848;SDS011;68645;44.762;21.516;2024-01-30T10:03:24;24.38;;;17.95;;
57848;SDS011;68645;44.762;21.516;2024-01-30T10:05:52;12.95;;;9.55;;
57848;SDS011;68645;44.762;21.516;2024-01-30T10:08:18;13.13;;;8.70;;
57848;SDS011;68645;44.762;21.516;2024-01-30T10:10:48;13.18;;;9.05;;
57848;SDS011;68645;44.762;21.516;2024-01-30T10:13:17;8.38;;;6.80;;
57848;SDS011;68645;44.762;21.516;2024-01-30T10:15:44;10.88;;;8.18;;
57848;SDS011;68645;44.762;21.516;2024-01-30T10:18:10;10.27;;;7.70;;
57848;SDS011;68645;44.762;21.516;2024-01-30T10:20:37;9.98;;;7.75;;
57848;SDS011;68645;44.762;21.516;2024-01-30T10:23:07;11.20;;;7.97;;
57848;SDS011;68645;44.762;21.516;2024-01-30T10:25:33;13.82;;;9.25;;
57848;SDS011;68645;44.762;21.516;2024-01-30T10:28:00;9.43;;;6.65;;
57848;SDS011;68645;44.762;21.516;2024-01-30T10:30:27;13.38;;;9.18;;
57848;SDS011;68645;44.762;21.516;2024-01-30T10:32:54;12.55;;;8.57;;
57848;SDS011;68645;44.762;21.516;2024-01-30T10:35:23;17.08;;;11.00;;
57848;SDS011;68645;44.762;21.516;2024-01-30T10:37:49;12.07;;;9.02;;
57848;SDS011;68645;44.762;21.516;2024-01-30T10:40:16;13.95;;;9.20;;
57848;SDS011;68645;44.762;21.516;2024-01-30T10:42:45;13.00;;;8.43;;
57848;SDS011;68645;44.762;21.516;2024-01-30T10:45:13;9.05;;;6.50;;
57848;SDS011;68645;44.762;21.516;2024-01-30T10:47:43;24.58;;;14.48;;
57848;SDS011;68645;44.762;21.516;2024-01-30T10:50:13;10.38;;;7.70;;
57848;SDS011;68645;44.762;21.516;2024-01-30T10:52:42;13.38;;;9.20;;
57848;SDS011;68645;44.762;21.516;2024-01-30T10:55:09;14.70;;;9.43;;
57848;SDS011;68645;44.762;21.516;2024-01-30T10:57:38;10.77;;;7.15;;
57848;SDS011;68645;44.762;21.516;2024-01-30T11:00:12;17.95;;;11.52;;
57848;SDS011;68645;44.762;21.516;2024-01-30T11:02:43;16.92;;;10.95;;
57848;SDS011;68645;44.762;21.516;2024-01-30T11:05:25;17.20;;;10.35;;
57848;SDS011;68645;44.762;21.516;2024-01-30T11:07:54;11.25;;;7.68;;
57848;SDS011;68645;44.762;21.516;2024-01-30T11:10:24;12.43;;;7.85;;
57848;SDS011;68645;44.762;21.516;2024-01-30T11:13:13;12.00;;;7.60;;
57848;SDS011;68645;44.762;21.516;2024-01-30T11:15:43;10.77;;;7.80;;
57848;SDS011;68645;44.762;21.516;2024-01-30T11:18:11;11.98;;;8.20;;
57848;SDS011;68645;44.762;21.516;2024-01-30T11:20:38;12.57;;;8.32;;
57848;SDS011;68645;44.762;21.516;2024-01-30T11:23:14;14.02;;;8.65;;
57848;SDS011;68645;44.762;21.516;2024-01-30T11:25:41;14.02;;;9.02;;
57848;SDS011;68645;44.762;21.516;2024-01-30T11:28:14;14.00;;;10.20;;
57848;SDS011;68645;44.762;21.516;2024-01-30T11:30:42;9.40;;;7.80;;
57848;SDS011;68645;44.762;21.516;2024-01-30T11:33:13;11.20;;;8.45;;
57848;SDS011;68645;44.762;21.516;2024-01-30T11:35:44;11.50;;;7.75;;
57848;SDS011;68645;44.762;21.516;2024-01-30T11:38:13;12.85;;;9.18;;
57848;SDS011;68645;44.762;21.516;2024-01-30T11:40:41;13.85;;;9.15;;
57848;SDS011;68645;44.762;21.516;2024-01-30T11:43:09;12.38;;;8.57;;
57848;SDS011;68645;44.762;21.516;2024-01-30T11:45:37;12.35;;;8.70;;
57848;SDS011;68645;44.762;21.516;2024-01-30T11:48:06;12.07;;;8.48;;
57848;SDS011;68645;44.762;21.516;2024-01-30T11:50:35;13.23;;;8.57;;
57848;SDS011;68645;44.762;21.516;2024-01-30T11:53:18;13.25;;;10.45;;
57848;SDS011;68645;44.762;21.516;2024-01-30T11:55:52;10.07;;;6.45;;
57848;SDS011;68645;44.762;21.516;2024-01-30T11:58:24;15.98;;;13.50;;
57848;SDS011;68645;44.762;21.516;2024-01-30T12:00:57;16.02;;;8.90;;
57848;SDS011;68645;44.762;21.516;2024-01-30T12:03:25;10.63;;;6.68;;
57848;SDS011;68645;44.762;21.516;2024-01-30T12:05:56;10.07;;;6.55;;
57848;SDS011;68645;44.762;21.516;2024-01-30T12:08:26;12.02;;;8.13;;
57848;SDS011;68645;44.762;21.516;2024-01-30T12:10:56;11.90;;;8.95;;
57848;SDS011;68645;44.762;21.516;2024-01-30T12:13:28;12.70;;;8.73;;
57848;SDS011;68645;44.762;21.516;2024-01-30T12:15:55;12.00;;;7.53;;
57848;SDS011;68645;44.762;21.516;2024-01-30T12:18:33;16.35;;;10.00;;
57848;SDS011;68645;44.762;21.516;2024-01-30T12:21:06;11.65;;;8.18;;
57848;SDS011;68645;44.762;21.516;2024-01-30T12:23:35;11.18;;;6.80;;
57848;SDS011;68645;44.762;21.516;2024-01-30T12:26:02;12.65;;;7.72;;
57848;SDS011;68645;44.762;21.516;2024-01-30T12:28:33;17.67;;;10.35;;
57848;SDS011;68645;44.762;21.516;2024-01-30T12:31:05;17.73;;;11.00;;
57848;SDS011;68645;44.762;21.516;2024-01-30T12:33:35;16.65;;;9.27;;
57848;SDS011;68645;44.762;21.516;2024-01-30T12:36:03;41.50;;;27.07;;
57848;SDS011;68645;44.762;21.516;2024-01-30T12:38:34;22.77;;;14.07;;
57848;SDS011;68645;44.762;21.516;2024-01-30T12:41:03;23.83;;;13.13;;
57848;SDS011;68645;44.762;21.516;2024-01-30T12:43:31;19.70;;;12.82;;
57848;SDS011;68645;44.762;21.516;2024-01-30T12:45:58;17.15;;;10.00;;
57848;SDS011;68645;44.762;21.516;2024-01-30T12:48:28;10.98;;;7.28;;
57848;SDS011;68645;44.762;21.516;2024-01-30T12:50:57;12.98;;;8.30;;
57848;SDS011;68645;44.762;21.516;2024-01-30T12:53:35;12.98;;;8.52;;
57848;SDS011;68645;44.762;21.516;2024-01-30T12:56:01;11.07;;;7.57;;
57848;SDS011;68645;44.762;21.516;2024-01-30T12:58:32;10.45;;;6.80;;
57848;SDS011;68645;44.762;21.516;2024-01-30T13:01:00;10.95;;;6.40;;
57848;SDS011;68645;44.762;21.516;2024-01-30T13:03:29;11.68;;;9.07;;
57848;SDS011;68645;44.762;21.516;2024-01-30T13:05:58;21.25;;;13.65;;
57848;SDS011;68645;44.762;21.516;2024-01-30T13:08:27;13.38;;;8.05;;
57848;SDS011;68645;44.762;21.516;2024-01-30T13:10:54;24.65;;;16.63;;
57848;SDS011;68645;44.762;21.516;2024-01-30T13:13:22;25.55;;;16.52;;
57848;SDS011;68645;44.762;21.516;2024-01-30T13:15:52;23.10;;;13.63;;
57848;SDS011;68645;44.762;21.516;2024-01-30T13:18:20;31.05;;;21.98;;
57848;SDS011;68645;44.762;21.516;2024-01-30T13:20:59;10.27;;;5.93;;
57848;SDS011;68645;44.762;21.516;2024-01-30T13:23:28;9.23;;;5.47;;
57848;SDS011;68645;44.762;21.516;2024-01-30T13:25:59;10.30;;;7.30;;
57848;SDS011;68645;44.762;21.516;2024-01-30T13:28:25;14.07;;;8.25;;
57848;SDS011;68645;44.762;21.516;2024-01-30T13:30:52;21.55;;;13.48;;
57848;SDS011;68645;44.762;21.516;2024-01-30T13:33:20;21.20;;;13.27;;
57848;SDS011;68645;44.762;21.516;2024-01-30T13:35:48;14.35;;;10.38;;
57848;SDS011;68645;44.762;21.516;2024-01-30T13:38:15;18.38;;;10.75;;
57848;SDS011;68645;44.762;21.516;2024-01-30T13:40:41;20.25;;;11.50;;
57848;SDS011;68645;44.762;21.516;2024-01-30T13:43:08;30.90;;;16.48;;
57848;SDS011;68645;44.762;21.516;2024-01-30T13:45:34;17.85;;;10.68;;
57848;SDS011;68645;44.762;21.516;2024-01-30T13:48:02;11.25;;;8.48;;
57848;SDS011;68645;44.762;21.516;2024-01-30T13:50:29;15.13;;;10.02;;
57848;SDS011;68645;44.762;21.516;2024-01-30T13:52:55;9.10;;;6.03;;
57848;SDS011;68645;44.762;21.516;2024-01-30T13:55:23;11.75;;;6.82;;
57848;SDS011;68645;44.762;21.516;2024-01-30T13:57:50;18.80;;;12.82;;
57848;SDS011;68645;44.762;21.516;2024-01-30T14:00:17;16.20;;;10.93;;
57848;SDS011;68645;44.762;21.516;2024-01-30T14:02:47;15.50;;;9.77;;
57848;SDS011;68645;44.762;21.516;2024-01-30T14:05:15;22.63;;;17.15;;
57848;SDS011;68645;44.762;21.516;2024-01-30T14:07:44;13.93;;;9.95;;
57848;SDS011;68645;44.762;21.516;2024-01-30T14:10:11;19.10;;;11.82;;